sensor_id;sensor_type;location;lat;lon;timestamp;pressure;altitude;pressure_sealevel;temperature;humidity
42587;BME280;28216;53.362;-6.288;2023-03-20T00:03:38;100930.91;;;10.79;100.00
42587;BME280;28216;53.362;-6.288;2023-03-20T00:06:04;100922.03;;;10.80;100.00
42587;BME280;28216;53.362;-6.288;2023-03-20T00:08:29;100929.91;;;10.80;100.00
42587;BME280;28216;53.362;-6.288;2023-03-20T00:10:57;100922.72;;;10.82;100.00
42587;BME280;28216;53.362;-6.288;2023-03-20T00:13:26;100928.28;;;10.79;100.00
42587;BME280;28216;53.362;-6.288;2023-03-20T00:15:52;100926.97;;;10.83;100.00
42587;BME280;28216;53.362;-6.288;2023-03-20T00:18:20;100925.50;;;10.81;100.00
42587;BME280;28216;53.362;-6.288;2023-03-20T00:20:49;100925.84;;;10.86;100.00
42587;BME280;28216;53.362;-6.288;2023-03-20T00:23:15;100929.28;;;10.87;100.00
42587;BME280;28216;53.362;-6.288;2023-03-20T00:25:43;100924.88;;;10.87;100.00
42587;BME280;28216;53.362;-6.288;2023-03-20T00:28:39;100929.78;;;10.90;100.00
42587;BME280;28216;53.362;-6.288;2023-03-20T00:31:28;100933.25;;;10.91;100.00
42587;BME280;28216;53.362;-6.288;2023-03-20T00:33:59;100929.16;;;10.96;100.00
42587;BME280;28216;53.362;-6.288;2023-03-20T00:36:26;100935.06;;;10.98;100.00
42587;BME280;28216;53.362;-6.288;2023-03-20T00:38:52;100928.84;;;10.99;100.00
42587;BME280;28216;53.362;-6.288;2023-03-20T00:41:43;100926.53;;;10.96;100.00
42587;BME280;28216;53.362;-6.288;2023-03-20T00:46:57;100931.31;;;11.01;100.00
42587;BME280;28216;53.362;-6.288;2023-03-20T00:49:28;100924.94;;;11.03;100.00
42587;BME280;28216;53.362;-6.288;2023-03-20T00:51:55;100911.97;;;11.02;100.00
42587;BME280;28216;53.362;-6.288;2023-03-20T00:54:21;100912.13;;;11.00;100.00
42587;BME280;28216;53.362;-6.288;2023-03-20T00:57:05;100907.69;;;11.01;100.00
42587;BME280;28216;53.362;-6.288;2023-03-20T00:59:35;100906.22;;;10.98;100.00
42587;BME280;28216;53.362;-6.288;2023-03-20T01:02:02;100901.13;;;10.97;100.00
42587;BME280;28216;53.362;-6.288;2023-03-20T01:04:36;100897.19;;;10.93;100.00
42587;BME280;28216;53.362;-6.288;2023-03-20T01:07:03;100892.44;;;10.96;100.00
42587;BME280;28216;53.362;-6.288;2023-03-20T01:09:29;100888.16;;;10.95;100.00
42587;BME280;28216;53.362;-6.288;2023-03-20T01:11:55;100892.59;;;10.95;100.00
42587;BME280;28216;53.362;-6.288;2023-03-20T01:14:20;100896.03;;;10.95;100.00
42587;BME280;28216;53.362;-6.288;2023-03-20T01:16:46;100892.59;;;10.95;100.00
42587;BME280;28216;53.362;-6.288;2023-03-20T01:19:13;100892.44;;;10.96;100.00
42587;BME280;28216;53.362;-6.288;2023-03-20T01:21:39;100888.84;;;10.97;100.00
42587;BME280;28216;53.362;-6.288;2023-03-20T01:24:05;100897.69;;;10.96;100.00
42587;BME280;28216;53.362;-6.288;2023-03-20T01:26:42;100894.25;;;10.96;100.00
42587;BME280;28216;53.362;-6.288;2023-03-20T01:29:17;100889.81;;;10.96;100.00
42587;BME280;28216;53.362;-6.288;2023-03-20T01:31:43;100888.53;;;11.00;100.00
42587;BME280;28216;53.362;-6.288;2023-03-20T01:34:10;100890.31;;;11.00;100.00
42587;BME280;28216;53.362;-6.288;2023-03-20T01:36:36;100884.09;;;11.01;100.00
42587;BME280;28216;53.362;-6.288;2023-03-20T01:39:02;100877.88;;;11.02;100.00
42587;BME280;28216;53.362;-6.288;2023-03-20T01:41:28;100872.63;;;11.02;100.00
42587;BME280;28216;53.362;-6.288;2023-03-20T01:43:54;100869.16;;;11.01;100.00
42587;BME280;28216;53.362;-6.288;2023-03-20T01:46:30;100876.06;;;11.02;100.00
42587;BME280;28216;53.362;-6.288;2023-03-20T01:51:55;100873.13;;;11.05;100.00
42587;BME280;28216;53.362;-6.288;2023-03-20T01:54:28;100874.59;;;11.08;100.00
42587;BME280;28216;53.362;-6.288;2023-03-20T01:59:33;100870.03;;;11.10;100.00
42587;BME280;28216;53.362;-6.288;2023-03-20T02:02:00;100866.41;;;11.11;100.00
42587;BME280;28216;53.362;-6.288;2023-03-20T02:04:31;100873.47;;;11.10;100.00
42587;BME280;28216;53.362;-6.288;2023-03-20T02:06:59;100865.59;;;11.10;100.00
42587;BME280;28216;53.362;-6.288;2023-03-20T02:09:24;100868.88;;;11.12;100.00
42587;BME280;28216;53.362;-6.288;2023-03-20T02:11:51;100860.34;;;11.10;100.00
42587;BME280;28216;53.362;-6.288;2023-03-20T02:14:18;100865.28;;;11.13;100.00
42587;BME280;28216;53.362;-6.288;2023-03-20T02:16:44;100869.53;;;11.14;100.00
42587;BME280;28216;53.362;-6.288;2023-03-20T02:19:19;100857.41;;;11.13;100.00
42587;BME280;28216;53.362;-6.288;2023-03-20T02:21:58;100868.44;;;11.17;100.00
42587;BME280;28216;53.362;-6.288;2023-03-20T02:25:29;100866.47;;;11.19;100.00
42587;BME280;28216;53.362;-6.288;2023-03-20T02:41:53;100860.72;;;11.24;100.00
42587;BME280;28216;53.362;-6.288;2023-03-20T02:44:57;100858.75;;;11.26;100.00
42587;BME280;28216;53.362;-6.288;2023-03-20T02:47:33;100851.56;;;11.28;100.00
42587;BME280;28216;53.362;-6.288;2023-03-20T02:52:46;100848.28;;;11.26;100.00
42587;BME280;28216;53.362;-6.288;2023-03-20T02:55:19;100856.13;;;11.26;100.00
42587;BME280;28216;53.362;-6.288;2023-03-20T02:58:09;100851.56;;;11.28;100.00
42587;BME280;28216;53.362;-6.288;2023-03-20T03:00:46;100845.47;;;11.27;100.00
42587;BME280;28216;53.362;-6.288;2023-03-20T03:06:06;100845.16;;;11.22;100.00
42587;BME280;28216;53.362;-6.288;2023-03-20T03:08:38;100848.44;;;11.24;100.00
42587;BME280;28216;53.362;-6.288;2023-03-20T03:11:07;100838.75;;;11.25;100.00
42587;BME280;28216;53.362;-6.288;2023-03-20T03:13:36;100838.09;;;11.23;100.00
42587;BME280;28216;53.362;-6.288;2023-03-20T03:16:11;100831.19;;;11.22;100.00
42587;BME280;28216;53.362;-6.288;2023-03-20T03:18:39;100832.19;;;11.21;100.00
42587;BME280;28216;53.362;-6.288;2023-03-20T03:21:08;100833.16;;;11.20;100.00
42587;BME280;28216;53.362;-6.288;2023-03-20T03:23:47;100822.81;;;11.18;100.00
42587;BME280;28216;53.362;-6.288;2023-03-20T03:26:34;100827.09;;;11.19;100.00
42587;BME280;28216;53.362;-6.288;2023-03-20T03:29:04;100824.31;;;11.21;100.00
42587;BME280;28216;53.362;-6.288;2023-03-20T03:31:31;100825.28;;;11.20;100.00
42587;BME280;28216;53.362;-6.288;2023-03-20T03:33:58;100824.47;;;11.19;100.00
42587;BME280;28216;53.362;-6.288;2023-03-20T03:36:36;100817.41;;;11.20;100.00
42587;BME280;28216;53.362;-6.288;2023-03-20T03:42:28;100825.13;;;11.21;100.00
42587;BME280;28216;53.362;-6.288;2023-03-20T03:50:24;100834.00;;;11.20;100.00
42587;BME280;28216;53.362;-6.288;2023-03-20T03:52:57;100839.91;;;11.22;100.00
42587;BME280;28216;53.362;-6.288;2023-03-20T03:55:25;100846.78;;;11.23;100.00
42587;BME280;28216;53.362;-6.288;2023-03-20T03:58:03;100851.38;;;11.21;100.00
42587;BME280;28216;53.362;-6.288;2023-03-20T04:00:31;100850.22;;;11.24;100.00
42587;BME280;28216;53.362;-6.288;2023-03-20T04:02:58;100845.66;;;11.26;100.00
42587;BME280;28216;53.362;-6.288;2023-03-20T04:05:27;100845.81;;;11.24;100.00
42587;BME280;28216;53.362;-6.288;2023-03-20T04:07:57;100842.53;;;11.22;100.00
42587;BME280;28216;53.362;-6.288;2023-03-20T04:10:23;100838.59;;;11.26;100.00
42587;BME280;28216;53.362;-6.288;2023-03-20T04:12:49;100842.84;;;11.27;100.00
42587;BME280;28216;53.362;-6.288;2023-03-20T04:15:15;100842.03;;;11.27;100.00
42587;BME280;28216;53.362;-6.288;2023-03-20T04:17:44;100832.53;;;11.26;100.00
42587;BME280;28216;53.362;-6.288;2023-03-20T04:20:10;100830.06;;;11.24;100.00
42587;BME280;28216;53.362;-6.288;2023-03-20T04:22:36;100838.75;;;11.25;100.00
42587;BME280;28216;53.362;-6.288;2023-03-20T04:25:06;100836.94;;;11.25;100.00
42587;BME280;28216;53.362;-6.288;2023-03-20T04:27:32;100841.22;;;11.26;100.00
42587;BME280;28216;53.362;-6.288;2023-03-20T04:29:58;100843.03;;;11.26;100.00
42587;BME280;28216;53.362;-6.288;2023-03-20T04:32:23;100841.53;;;11.23;100.00
42587;BME280;28216;53.362;-6.288;2023-03-20T04:34:49;100842.53;;;11.22;100.00
42587;BME280;28216;53.362;-6.288;2023-03-20T04:37:16;100839.06;;;11.22;100.00
42587;BME280;28216;53.362;-6.288;2023-03-20T04:39:42;100839.72;;;11.24;100.00
42587;BME280;28216;53.362;-6.288;2023-03-20T04:42:08;100846.94;;;11.22;100.00
42587;BME280;28216;53.362;-6.288;2023-03-20T04:44:33;100846.94;;;11.22;100.00
42587;BME280;28216;53.362;-6.288;2023-03-20T04:46:59;100846.28;;;11.20;100.00
42587;BME280;28216;53.362;-6.288;2023-03-20T04:49:25;100845.97;;;11.23;100.00
42587;BME280;28216;53.362;-6.288;2023-03-20T04:51:51;100843.50;;;11.21;100.00
42587;BME280;28216;53.362;-6.288;2023-03-20T04:54:17;100845.97;;;11.23;100.00
42587;BME280;28216;53.362;-6.288;2023-03-20T04:56:43;100841.69;;;11.22;100.00
42587;BME280;28216;53.362;-6.288;2023-03-20T04:59:08;100851.22;;;11.23;100.00
42587;BME280;28216;53.362;-6.288;2023-03-20T05:01:34;100854.50;;;11.25;100.00
42587;BME280;28216;53.362;-6.288;2023-03-20T05:04:00;100851.22;;;11.23;100.00
42587;BME280;28216;53.362;-6.288;2023-03-20T05:06:29;100844.31;;;11.22;100.00
42587;BME280;28216;53.362;-6.288;2023-03-20T05:08:58;100841.69;;;11.22;100.00
42587;BME280;28216;53.362;-6.288;2023-03-20T05:11:25;100842.53;;;11.22;100.00
42587;BME280;28216;53.362;-6.288;2023-03-20T05:13:51;100841.19;;;11.18;100.00
42587;BME280;28216;53.362;-6.288;2023-03-20T05:16:16;100832.50;;;11.18;100.00
42587;BME280;28216;53.362;-6.288;2023-03-20T05:18:42;100833.16;;;11.20;100.00
42587;BME280;28216;53.362;-6.288;2023-03-20T05:21:07;100828.41;;;11.15;100.00
42587;BME280;28216;53.362;-6.288;2023-03-20T05:23:33;100827.72;;;11.13;100.00
42587;BME280;28216;53.362;-6.288;2023-03-20T05:25:58;100827.56;;;11.14;100.00
42587;BME280;28216;53.362;-6.288;2023-03-20T05:28:25;100831.97;;;11.14;100.00
42587;BME280;28216;53.362;-6.288;2023-03-20T05:30:50;100825.72;;;11.07;100.00
42587;BME280;28216;53.362;-6.288;2023-03-20T05:33:16;100823.44;;;11.04;100.00
42587;BME280;28216;53.362;-6.288;2023-03-20T05:35:41;100826.88;;;11.04;100.00
42587;BME280;28216;53.362;-6.288;2023-03-20T05:38:07;100830.47;;;11.03;100.00
42587;BME280;28216;53.362;-6.288;2023-03-20T05:40:32;100832.13;;;11.04;100.00
42587;BME280;28216;53.362;-6.288;2023-03-20T05:42:58;100835.56;;;11.05;100.00
42587;BME280;28216;53.362;-6.288;2023-03-20T05:45:23;100832.94;;;11.05;100.00
42587;BME280;28216;53.362;-6.288;2023-03-20T05:47:49;100838.84;;;11.07;100.00
42587;BME280;28216;53.362;-6.288;2023-03-20T05:50:14;100838.03;;;11.06;100.00
42587;BME280;28216;53.362;-6.288;2023-03-20T05:52:40;100836.38;;;11.05;100.00
42587;BME280;28216;53.362;-6.288;2023-03-20T05:55:06;100845.91;;;11.06;100.00
42587;BME280;28216;53.362;-6.288;2023-03-20T05:57:31;100841.47;;;11.07;100.00
42587;BME280;28216;53.362;-6.288;2023-03-20T05:59:57;100836.88;;;11.09;100.00
42587;BME280;28216;53.362;-6.288;2023-03-20T06:02:22;100836.38;;;11.05;100.00
42587;BME280;28216;53.362;-6.288;2023-03-20T06:04:48;100833.75;;;11.05;100.00
42587;BME280;28216;53.362;-6.288;2023-03-20T06:07:13;100834.75;;;11.04;100.00
42587;BME280;28216;53.362;-6.288;2023-03-20T06:09:39;100823.09;;;11.07;100.00
42587;BME280;28216;53.362;-6.288;2023-03-20T06:12:05;100825.72;;;11.07;100.00
42587;BME280;28216;53.362;-6.288;2023-03-20T06:14:31;100829.34;;;11.06;100.00
42587;BME280;28216;53.362;-6.288;2023-03-20T06:16:56;100832.13;;;11.04;100.00
42587;BME280;28216;53.362;-6.288;2023-03-20T06:19:22;100826.72;;;11.06;100.00
42587;BME280;28216;53.362;-6.288;2023-03-20T06:21:48;100823.78;;;11.09;100.00
42587;BME280;28216;53.362;-6.288;2023-03-20T06:24:14;100823.78;;;11.09;100.00
42587;BME280;28216;53.362;-6.288;2023-03-20T06:26:40;100826.56;;;11.07;100.00
42587;BME280;28216;53.362;-6.288;2023-03-20T06:29:06;100831.81;;;11.07;100.00
42587;BME280;28216;53.362;-6.288;2023-03-20T06:31:31;100832.13;;;11.04;100.00
42587;BME280;28216;53.362;-6.288;2023-03-20T06:33:57;100837.22;;;11.06;100.00
42587;BME280;28216;53.362;-6.288;2023-03-20T06:36:23;100836.38;;;11.05;100.00
42587;BME280;28216;53.362;-6.288;2023-03-20T06:38:49;100827.69;;;11.05;100.00
42587;BME280;28216;53.362;-6.288;2023-03-20T06:41:15;100827.03;;;11.03;100.00
42587;BME280;28216;53.362;-6.288;2023-03-20T06:43:40;100832.94;;;11.05;100.00
42587;BME280;28216;53.362;-6.288;2023-03-20T06:46:07;100836.38;;;11.05;100.00
42587;BME280;28216;53.362;-6.288;2023-03-20T06:48:33;100840.81;;;11.05;100.00
42587;BME280;28216;53.362;-6.288;2023-03-20T06:50:58;100837.03;;;11.07;100.00
42587;BME280;28216;53.362;-6.288;2023-03-20T06:53:27;100839.81;;;11.06;100.00
42587;BME280;28216;53.362;-6.288;2023-03-20T06:55:53;100839.81;;;11.06;100.00
42587;BME280;28216;53.362;-6.288;2023-03-20T06:58:19;100848.69;;;11.05;100.00
42587;BME280;28216;53.362;-6.288;2023-03-20T07:00:45;100853.09;;;11.04;100.00
42587;BME280;28216;53.362;-6.288;2023-03-20T07:03:11;100855.56;;;11.06;100.00
42587;BME280;28216;53.362;-6.288;2023-03-20T07:05:37;100863.44;;;11.06;100.00
42587;BME280;28216;53.362;-6.288;2023-03-20T07:08:08;100852.94;;;11.06;100.00
42587;BME280;28216;53.362;-6.288;2023-03-20T07:10:40;100861.31;;;11.09;100.00
42587;BME280;28216;53.362;-6.288;2023-03-20T07:13:05;100863.19;;;11.17;100.00
42587;BME280;28216;53.362;-6.288;2023-03-20T07:15:31;100865.16;;;11.23;100.00
42587;BME280;28216;53.362;-6.288;2023-03-20T07:17:57;100863.03;;;11.27;100.00
42587;BME280;28216;53.362;-6.288;2023-03-20T07:20:25;100858.44;;;11.29;100.00
42587;BME280;28216;53.362;-6.288;2023-03-20T07:23:07;100866.97;;;11.31;100.00
42587;BME280;28216;53.362;-6.288;2023-03-20T07:28:14;100868.63;;;11.32;100.00
42587;BME280;28216;53.362;-6.288;2023-03-20T07:30:42;100875.34;;;11.34;100.00
42587;BME280;28216;53.362;-6.288;2023-03-20T07:33:11;100872.56;;;11.36;100.00
42587;BME280;28216;53.362;-6.288;2023-03-20T07:35:36;100877.66;;;11.37;100.00
42587;BME280;28216;53.362;-6.288;2023-03-20T07:38:04;100875.69;;;11.39;100.00
42587;BME280;28216;53.362;-6.288;2023-03-20T07:40:44;100866.00;;;11.40;100.00
42587;BME280;28216;53.362;-6.288;2023-03-20T07:43:13;100863.06;;;11.43;100.00
42587;BME280;28216;53.362;-6.288;2023-03-20T07:45:38;100870.94;;;11.43;100.00
42587;BME280;28216;53.362;-6.288;2023-03-20T07:51:40;100864.03;;;11.42;100.00
42587;BME280;28216;53.362;-6.288;2023-03-20T07:54:06;100876.84;;;11.45;100.00
42587;BME280;28216;53.362;-6.288;2023-03-20T07:56:32;100875.53;;;11.49;100.00
42587;BME280;28216;53.362;-6.288;2023-03-20T07:59:02;100876.19;;;11.51;100.00
42587;BME280;28216;53.362;-6.288;2023-03-20T08:01:28;100879.31;;;11.55;100.00
42587;BME280;28216;53.362;-6.288;2023-03-20T08:03:53;100888.34;;;11.60;100.00
42587;BME280;28216;53.362;-6.288;2023-03-20T08:06:24;100887.69;;;11.66;100.00
42587;BME280;28216;53.362;-6.288;2023-03-20T08:08:52;100899.69;;;11.69;100.00
42587;BME280;28216;53.362;-6.288;2023-03-20T08:11:18;100886.22;;;11.72;100.00
42587;BME280;28216;53.362;-6.288;2023-03-20T08:13:44;100892.13;;;11.74;100.00
42587;BME280;28216;53.362;-6.288;2023-03-20T08:16:10;100889.03;;;11.78;100.00
42587;BME280;28216;53.362;-6.288;2023-03-20T08:18:36;100889.69;;;11.81;100.00
42587;BME280;28216;53.362;-6.288;2023-03-20T08:21:04;100888.88;;;11.88;100.00
42587;BME280;28216;53.362;-6.288;2023-03-20T08:23:29;100877.75;;;11.94;100.00
42587;BME280;28216;53.362;-6.288;2023-03-20T08:25:55;100873.63;;;12.00;100.00
42587;BME280;28216;53.362;-6.288;2023-03-20T08:28:21;100873.78;;;12.06;100.00
42587;BME280;28216;53.362;-6.288;2023-03-20T08:30:49;100869.03;;;12.10;100.00
42587;BME280;28216;53.362;-6.288;2023-03-20T08:33:25;100869.19;;;12.17;100.00
42587;BME280;28216;53.362;-6.288;2023-03-20T08:35:57;100876.72;;;12.20;100.00
42587;BME280;28216;53.362;-6.288;2023-03-20T08:38:23;100883.47;;;12.22;100.00
42587;BME280;28216;53.362;-6.288;2023-03-20T08:40:49;100888.22;;;12.27;100.00
42587;BME280;28216;53.362;-6.288;2023-03-20T08:43:15;100880.00;;;12.30;100.00
42587;BME280;28216;53.362;-6.288;2023-03-20T08:45:43;100878.03;;;12.32;100.00
42587;BME280;28216;53.362;-6.288;2023-03-20T08:48:09;100884.75;;;12.34;100.00
42587;BME280;28216;53.362;-6.288;2023-03-20T08:50:35;100885.88;;;12.40;100.00
42587;BME280;28216;53.362;-6.288;2023-03-20T08:53:05;100883.59;;;12.37;100.00
42587;BME280;28216;53.362;-6.288;2023-03-20T08:55:30;100883.56;;;12.45;100.00
42587;BME280;28216;53.362;-6.288;2023-03-20T08:57:59;100884.53;;;12.52;100.00
42587;BME280;28216;53.362;-6.288;2023-03-20T09:00:24;100874.84;;;12.53;100.00
42587;BME280;28216;53.362;-6.288;2023-03-20T09:02:52;100881.25;;;12.58;100.00
42587;BME280;28216;53.362;-6.288;2023-03-20T09:05:17;100884.34;;;12.62;100.00
42587;BME280;28216;53.362;-6.288;2023-03-20T09:07:43;100884.69;;;12.67;100.00
42587;BME280;28216;53.362;-6.288;2023-03-20T09:10:10;100887.16;;;12.60;100.00
42587;BME280;28216;53.362;-6.288;2023-03-20T09:12:36;100879.09;;;12.70;100.00
42587;BME280;28216;53.362;-6.288;2023-03-20T09:15:03;100874.97;;;12.76;100.00
42587;BME280;28216;53.362;-6.288;2023-03-20T09:17:28;100878.88;;;12.80;100.00
42587;BME280;28216;53.362;-6.288;2023-03-20T09:19:56;100872.47;;;12.82;100.00
42587;BME280;28216;53.362;-6.288;2023-03-20T09:22:21;100862.06;;;12.89;100.00
42587;BME280;28216;53.362;-6.288;2023-03-20T09:24:47;100862.81;;;13.05;100.00
42587;BME280;28216;53.362;-6.288;2023-03-20T09:27:12;100861.13;;;13.13;100.00
42587;BME280;28216;53.362;-6.288;2023-03-20T09:29:39;100864.22;;;13.24;100.00
42587;BME280;28216;53.362;-6.288;2023-03-20T09:32:05;100865.81;;;13.33;100.00
42587;BME280;28216;53.362;-6.288;2023-03-20T09:34:31;100865.63;;;13.35;100.00
42587;BME280;28216;53.362;-6.288;2023-03-20T09:36:59;100871.88;;;13.42;100.00
42587;BME280;28216;53.362;-6.288;2023-03-20T09:39:27;100865.47;;;13.59;100.00
42587;BME280;28216;53.362;-6.288;2023-03-20T09:41:53;100864.78;;;13.65;100.00
42587;BME280;28216;53.362;-6.288;2023-03-20T09:50:22;100867.84;;;13.92;100.00
42587;BME280;28216;53.362;-6.288;2023-03-20T09:53:19;100867.84;;;13.92;100.00
42587;BME280;28216;53.362;-6.288;2023-03-20T09:55:49;100867.38;;;13.88;100.00
42587;BME280;28216;53.362;-6.288;2023-03-20T09:58:23;100870.09;;;13.80;100.00
42587;BME280;28216;53.362;-6.288;2023-03-20T10:00:49;100873.25;;;13.76;100.00
42587;BME280;28216;53.362;-6.288;2023-03-20T10:03:20;100871.44;;;13.76;100.00
42587;BME280;28216;53.362;-6.288;2023-03-20T10:05:58;100866.56;;;13.88;100.00
42587;BME280;28216;53.362;-6.288;2023-03-20T10:08:29;100861.94;;;13.90;100.00
42587;BME280;28216;53.362;-6.288;2023-03-20T10:13:46;100862.22;;;13.95;100.00
42587;BME280;28216;53.362;-6.288;2023-03-20T10:19:10;100862.44;;;14.08;100.00
42587;BME280;28216;53.362;-6.288;2023-03-20T10:21:39;100874.44;;;14.11;100.00
42587;BME280;28216;53.362;-6.288;2023-03-20T10:26:45;100858.47;;;14.27;100.00
42587;BME280;28216;53.362;-6.288;2023-03-20T10:29:47;100851.56;;;14.41;100.00
42587;BME280;28216;53.362;-6.288;2023-03-20T10:40:36;100855.78;;;14.50;100.00
42587;BME280;28216;53.362;-6.288;2023-03-20T10:43:15;100853.50;;;14.47;100.00
42587;BME280;28216;53.362;-6.288;2023-03-20T10:45:49;100857.78;;;14.48;100.00
42587;BME280;28216;53.362;-6.288;2023-03-20T10:50:54;100854.59;;;14.67;100.00
42587;BME280;28216;53.362;-6.288;2023-03-20T10:53:53;100852.22;;;14.72;100.00
42587;BME280;28216;53.362;-6.288;2023-03-20T10:58:49;100860.59;;;14.76;100.00
42587;BME280;28216;53.362;-6.288;2023-03-20T11:01:20;100856.75;;;14.78;100.00
42587;BME280;28216;53.362;-6.288;2023-03-20T11:03:47;100854.75;;;14.80;100.00
42587;BME280;28216;53.362;-6.288;2023-03-20T11:06:17;100858.50;;;14.71;100.00
42587;BME280;28216;53.362;-6.288;2023-03-20T11:08:47;100855.03;;;14.71;100.00
42587;BME280;28216;53.362;-6.288;2023-03-20T11:11:20;100852.84;;;14.74;100.00
42587;BME280;28216;53.362;-6.288;2023-03-20T11:13:46;100836.38;;;14.72;100.00
42587;BME280;28216;53.362;-6.288;2023-03-20T11:16:21;100828.34;;;14.80;100.00
42587;BME280;28216;53.362;-6.288;2023-03-20T11:18:48;100834.38;;;14.89;100.00
42587;BME280;28216;53.362;-6.288;2023-03-20T11:21:24;100824.28;;;14.92;100.00
42587;BME280;28216;53.362;-6.288;2023-03-20T11:23:51;100825.09;;;15.14;100.00
42587;BME280;28216;53.362;-6.288;2023-03-20T11:26:26;100828.31;;;15.31;100.00
42587;BME280;28216;53.362;-6.288;2023-03-20T11:28:58;100815.88;;;15.46;100.00
42587;BME280;28216;53.362;-6.288;2023-03-20T11:31:29;100819.66;;;15.58;100.00
42587;BME280;28216;53.362;-6.288;2023-03-20T11:36:30;100809.63;;;15.54;100.00
42587;BME280;28216;53.362;-6.288;2023-03-20T11:39:22;100822.91;;;15.39;100.00
42587;BME280;28216;53.362;-6.288;2023-03-20T11:41:53;100818.00;;;15.36;100.00
42587;BME280;28216;53.362;-6.288;2023-03-20T11:44:26;100810.72;;;15.38;100.00
42587;BME280;28216;53.362;-6.288;2023-03-20T11:49:27;100805.09;;;15.48;100.00
42587;BME280;28216;53.362;-6.288;2023-03-20T11:51:55;100802.66;;;15.46;100.00
42587;BME280;28216;53.362;-6.288;2023-03-20T11:54:24;100809.13;;;15.44;100.00
42587;BME280;28216;53.362;-6.288;2023-03-20T11:56:56;100803.41;;;15.40;100.00
42587;BME280;28216;53.362;-6.288;2023-03-20T11:59:30;100805.69;;;15.43;100.00
42587;BME280;28216;53.362;-6.288;2023-03-20T12:01:59;100800.66;;;15.48;100.00
42587;BME280;28216;53.362;-6.288;2023-03-20T12:04:28;100797.81;;;15.50;100.00
42587;BME280;28216;53.362;-6.288;2023-03-20T12:07:03;100798.75;;;15.42;100.00
42587;BME280;28216;53.362;-6.288;2023-03-20T12:09:50;100773.03;;;15.30;100.00
42587;BME280;28216;53.362;-6.288;2023-03-20T12:17:45;100771.75;;;15.47;100.00
42587;BME280;28216;53.362;-6.288;2023-03-20T12:25:25;100774.22;;;15.48;100.00
42587;BME280;28216;53.362;-6.288;2023-03-20T12:40:49;100769.25;;;15.60;100.00
42587;BME280;28216;53.362;-6.288;2023-03-20T12:53:55;100746.47;;;15.59;100.00
42587;BME280;28216;53.362;-6.288;2023-03-20T12:56:30;100750.09;;;15.79;100.00
42587;BME280;28216;53.362;-6.288;2023-03-20T12:59:09;100736.41;;;16.04;100.00
42587;BME280;28216;53.362;-6.288;2023-03-20T13:04:34;100739.56;;;16.20;100.00
42587;BME280;28216;53.362;-6.288;2023-03-20T13:07:17;100745.50;;;16.29;100.00
42587;BME280;28216;53.362;-6.288;2023-03-20T13:12:36;100727.53;;;16.59;100.00
42587;BME280;28216;53.362;-6.288;2023-03-20T13:20:55;100724.84;;;16.46;100.00
42587;BME280;28216;53.362;-6.288;2023-03-20T13:23:55;100726.63;;;16.39;100.00
42587;BME280;28216;53.362;-6.288;2023-03-20T13:28:54;100714.56;;;16.30;100.00
42587;BME280;28216;53.362;-6.288;2023-03-20T13:34:37;100711.06;;;16.23;100.00
42587;BME280;28216;53.362;-6.288;2023-03-20T13:39:59;100702.88;;;16.11;100.00
42587;BME280;28216;53.362;-6.288;2023-03-20T13:42:36;100699.63;;;16.09;100.00
42587;BME280;28216;53.362;-6.288;2023-03-20T13:45:08;100701.69;;;16.13;100.00
42587;BME280;28216;53.362;-6.288;2023-03-20T13:47:47;100694.53;;;16.07;100.00
42587;BME280;28216;53.362;-6.288;2023-03-20T14:02:12;100664.16;;;15.90;100.00
42587;BME280;28216;53.362;-6.288;2023-03-20T14:20:49;100633.03;;;15.92;100.00
42587;BME280;28216;53.362;-6.288;2023-03-20T14:46:16;100623.34;;;15.65;100.00
42587;BME280;28216;53.362;-6.288;2023-03-20T14:48:51;100619.09;;;15.70;100.00
42587;BME280;28216;53.362;-6.288;2023-03-20T14:51:47;100615.22;;;15.66;100.00
42587;BME280;28216;53.362;-6.288;2023-03-20T14:54:34;100615.97;;;15.60;100.00
42587;BME280;28216;53.362;-6.288;2023-03-20T14:57:30;100623.56;;;15.42;100.00
42587;BME280;28216;53.362;-6.288;2023-03-20T15:00:00;100611.22;;;15.49;100.00
42587;BME280;28216;53.362;-6.288;2023-03-20T15:02:34;100614.97;;;15.33;100.00
42587;BME280;28216;53.362;-6.288;2023-03-20T15:05:01;100613.59;;;15.37;100.00
42587;BME280;28216;53.362;-6.288;2023-03-20T15:07:30;100610.56;;;15.40;100.00
42587;BME280;28216;53.362;-6.288;2023-03-20T15:10:00;100608.09;;;15.39;100.00
42587;BME280;28216;53.362;-6.288;2023-03-20T15:12:31;100603.63;;;15.39;100.00
42587;BME280;28216;53.362;-6.288;2023-03-20T15:15:01;100611.16;;;15.42;100.00
42587;BME280;28216;53.362;-6.288;2023-03-20T15:17:38;100603.63;;;15.39;100.00
42587;BME280;28216;53.362;-6.288;2023-03-20T15:20:26;100597.97;;;15.42;100.00
42587;BME280;28216;53.362;-6.288;2023-03-20T15:22:59;100593.28;;;15.44;100.00
42587;BME280;28216;53.362;-6.288;2023-03-20T15:25:38;100584.16;;;15.47;100.00
42587;BME280;28216;53.362;-6.288;2023-03-20T15:28:11;100585.84;;;15.54;100.00
42587;BME280;28216;53.362;-6.288;2023-03-20T15:30:57;100587.44;;;15.49;100.00
42587;BME280;28216;53.362;-6.288;2023-03-20T15:33:43;100589.47;;;15.53;100.00
42587;BME280;28216;53.362;-6.288;2023-03-20T15:36:29;100581.91;;;15.44;100.00
42587;BME280;28216;53.362;-6.288;2023-03-20T15:39:17;100581.91;;;15.44;100.00
42587;BME280;28216;53.362;-6.288;2023-03-20T15:42:03;100586.97;;;15.39;100.00
42587;BME280;28216;53.362;-6.288;2023-03-20T15:44:36;100576.63;;;15.44;100.00
42587;BME280;28216;53.362;-6.288;2023-03-20T15:49:33;100578.34;;;15.58;100.00
42587;BME280;28216;53.362;-6.288;2023-03-20T15:52:02;100572.88;;;15.60;100.00